Winds at EHAM

Holy cow! If you guys are looking for a crosswind landing, head over to eham! just hit winds of 47 knts on final! looked dope

2 Likes

This is the current metar - looks like fun.

EHAM 070655Z 32025G36KT.

2 Likes

Full METAR if anyone is curious

EHAM 070725Z 32025G35KT 9999 FEW017TCU BKN020 BKN030 06/02 Q1013 NOSIG

Basically wind from the NW (320 degrees) at 29 MPH (25 knots; 12.9 m/s)
gusting to 40 MPH (35 knots; 18.0 m/s)

2 Likes